Time;durP1;ratioP1;P1;durP2;ratioP2;P2;SDS_P1;SDS_P2;PMS_P1;PMS_P2;Temp;Humidity;BMP_temperature;BMP_pressure;BME280_temperature;BME280_humidity;BME280_pressure;Samples;Min_cycle;Max_cycle;Signal;HPM_P1;HPM_P2
2023/04/09 00:02:13;;;;;;;70.97;40.92;;;8.80;99.90;;;;;;5069511;28;20057;-90
2023/04/09 00:04:39;;;;;;;74.30;39.95;;;8.70;99.90;;;;;;5082873;28;20185;-90
2023/04/09 00:07:04;;;;;;;77.78;40.72;;;8.80;99.90;;;;;;5080836;28;20406;-90
2023/04/09 00:09:30;;;;;;;73.75;41.53;;;8.80;99.90;;;;;;5080065;28;20076;-89
2023/04/09 00:11:57;;;;;;;72.63;41.80;;;8.80;99.90;;;;;;5064072;28;20126;-90
2023/04/09 00:14:25;;;;;;;72.05;39.75;;;8.80;99.90;;;;;;5066095;28;20040;-90
2023/04/09 00:16:51;;;;;;;73.78;41.50;;;8.80;99.90;;;;;;5084548;28;20051;-90
2023/04/09 00:19:17;;;;;;;73.30;40.17;;;8.80;99.90;;;;;;5081137;28;20037;-91
2023/04/09 00:21:42;;;;;;;83.25;40.67;;;8.80;99.90;;;;;;5086539;28;20067;-89
2023/04/09 00:24:08;;;;;;;75.07;41.25;;;8.70;99.90;;;;;;5070415;28;20023;-90
2023/04/09 00:26:34;;;;;;;72.32;40.85;;;8.70;99.90;;;;;;5073422;28;20123;-89
2023/04/09 00:28:59;;;;;;;64.45;37.92;;;8.70;99.90;;;;;;5080754;28;20051;-89
2023/04/09 00:31:28;;;;;;;67.80;39.33;;;8.70;99.90;;;;;;5066505;28;20047;-89
2023/04/09 00:33:54;;;;;;;68.47;39.70;;;8.70;99.90;;;;;;5068124;28;20071;-89
2023/04/09 00:36:20;;;;;;;73.60;37.65;;;8.70;99.90;;;;;;5100291;28;20060;-89
2023/04/09 00:38:47;;;;;;;68.18;38.58;;;8.70;99.90;;;;;;5082012;28;20036;-90
2023/04/09 00:41:13;;;;;;;69.60;39.13;;;8.70;99.90;;;;;;5083955;28;20040;-90
2023/04/09 00:43:38;;;;;;;62.83;35.72;;;8.70;99.90;;;;;;5064880;28;20070;-89
2023/04/09 00:46:05;;;;;;;63.72;35.50;;;8.70;99.90;;;;;;5075507;28;20048;-90
2023/04/09 00:48:31;;;;;;;62.15;35.63;;;8.70;99.90;;;;;;5062856;28;20040;-90
2023/04/09 00:50:57;;;;;;;56.85;33.13;;;8.70;99.90;;;;;;5068551;28;20066;-90
2023/04/09 00:53:22;;;;;;;55.30;31.80;;;8.60;99.90;;;;;;5099124;28;20040;-90
2023/04/09 00:55:48;;;;;;;52.47;30.73;;;8.60;99.90;;;;;;5082138;28;20058;-90
2023/04/09 00:58:14;;;;;;;49.33;28.30;;;8.60;99.90;;;;;;5066544;28;20125;-90
2023/04/09 01:00:40;;;;;;;46.70;28.33;;;8.60;99.90;;;;;;5065740;28;20062;-90
2023/04/09 01:03:06;;;;;;;41.58;24.83;;;8.60;99.90;;;;;;5078522;28;20120;-90
2023/04/09 01:06:10;;;;;;;38.88;22.83;;;8.60;99.90;;;;;;5085825;28;20050;-90
2023/04/09 01:08:54;;;;;;;40.72;23.20;;;8.60;99.90;;;;;;5081358;28;20048;-90
2023/04/09 01:11:36;;;;;;;42.45;23.80;;;8.50;99.90;;;;;;5077364;28;20221;-89
2023/04/09 01:14:09;;;;;;;39.05;23.73;;;8.60;99.90;;;;;;5065563;28;20155;-89
2023/04/09 01:16:36;;;;;;;40.58;24.63;;;8.60;99.90;;;;;;5081879;28;20040;-90
2023/04/09 01:19:14;;;;;;;40.05;24.13;;;8.60;99.90;;;;;;5101077;28;20036;-89
2023/04/09 01:21:41;;;;;;;39.50;24.23;;;8.60;99.90;;;;;;5067473;28;20097;-89
2023/04/09 01:24:26;;;;;;;41.33;22.35;;;8.60;99.90;;;;;;5085903;28;20114;-90
2023/04/09 01:27:02;;;;;;;39.20;23.30;;;8.60;99.90;;;;;;5081217;28;20036;-90
2023/04/09 01:29:31;;;;;;;43.47;23.75;;;8.50;99.90;;;;;;5080596;28;20371;-90
2023/04/09 01:32:05;;;;;;;38.10;23.17;;;8.50;99.90;;;;;;5077552;28;20154;-90
2023/04/09 01:34:32;;;;;;;40.63;23.97;;;8.40;99.90;;;;;;5064510;28;20040;-90
2023/04/09 01:37:04;;;;;;;36.97;21.90;;;8.40;99.90;;;;;;5081237;28;20184;-90
2023/04/09 01:39:30;;;;;;;39.75;23.60;;;8.40;99.90;;;;;;5095269;28;20199;-89
2023/04/09 01:41:56;;;;;;;41.30;22.30;;;8.40;99.90;;;;;;5080466;28;20036;-90
2023/04/09 01:44:23;;;;;;;39.83;23.50;;;8.40;99.90;;;;;;5078302;28;20609;-89
2023/04/09 01:46:50;;;;;;;38.55;23.60;;;8.40;99.90;;;;;;5070305;28;20044;-90
2023/04/09 01:49:17;;;;;;;39.15;22.75;;;8.40;99.90;;;;;;5063751;28;20032;-90
2023/04/09 01:51:43;;;;;;;41.35;23.77;;;8.40;99.90;;;;;;5087076;28;20388;-89
2023/04/09 01:54:09;;;;;;;38.33;23.40;;;8.40;99.90;;;;;;5080884;28;20043;-89
2023/04/09 01:56:42;;;;;;;38.30;23.42;;;8.40;99.90;;;;;;5089938;28;21205;-90
2023/04/09 01:59:11;;;;;;;39.58;24.17;;;8.40;99.90;;;;;;5069234;28;20261;-90
2023/04/09 02:01:44;;;;;;;43.70;25.10;;;8.40;99.90;;;;;;5088066;28;20061;-90
2023/04/09 02:04:23;;;;;;;39.15;23.02;;;8.40;99.90;;;;;;5066466;28;20028;-90
2023/04/09 02:07:00;;;;;;;38.60;23.63;;;8.40;99.90;;;;;;5085055;28;20092;-89
2023/04/09 02:09:30;;;;;;;40.92;23.73;;;8.40;99.90;;;;;;5075390;28;20078;-90
2023/04/09 02:12:01;;;;;;;42.60;24.23;;;8.40;99.90;;;;;;5102871;27;20039;-91
2023/04/09 02:14:30;;;;;;;41.53;23.48;;;8.40;99.90;;;;;;5086414;28;20118;-90
2023/04/09 02:16:56;;;;;;;39.47;22.42;;;8.40;99.90;;;;;;5085588;28;20039;-89
2023/04/09 02:19:21;;;;;;;40.03;23.48;;;8.30;99.90;;;;;;5080332;28;20036;-90
2023/04/09 02:21:47;;;;;;;39.22;23.98;;;8.30;99.90;;;;;;5089030;28;20394;-90
2023/04/09 02:24:16;;;;;;;42.03;24.33;;;8.30;99.90;;;;;;5102519;27;20391;-90
2023/04/09 02:26:41;;;;;;;40.13;24.08;;;8.30;99.90;;;;;;5071227;28;20039;-90
2023/04/09 02:29:07;;;;;;;42.17;24.42;;;8.20;99.90;;;;;;5068060;28;20411;-90
2023/04/09 02:31:32;;;;;;;44.03;24.42;;;8.20;99.90;;;;;;5086773;28;20064;-90
2023/04/09 02:33:58;;;;;;;38.40;24.02;;;8.20;99.90;;;;;;5086206;28;20040;-90
2023/04/09 02:36:25;;;;;;;37.45;23.17;;;8.20;99.90;;;;;;5071426;28;20043;-89
2023/04/09 02:38:50;;;;;;;42.72;25.23;;;8.20;99.90;;;;;;5085857;28;20108;-90
2023/04/09 02:41:16;;;;;;;42.75;24.75;;;8.20;99.90;;;;;;5099007;27;20115;-90
2023/04/09 02:43:42;;;;;;;39.88;23.77;;;8.20;99.90;;;;;;5096733;28;20131;-89
2023/04/09 02:46:07;;;;;;;40.42;22.98;;;8.10;99.90;;;;;;5088026;28;20040;-90
2023/04/09 02:48:33;;;;;;;39.05;24.17;;;8.10;99.90;;;;;;5101704;27;20054;-90
2023/04/09 02:50:59;;;;;;;38.33;23.08;;;8.20;99.90;;;;;;5084638;28;20130;-90
2023/04/09 02:53:25;;;;;;;48.28;24.48;;;8.10;99.90;;;;;;5084946;28;20079;-90
2023/04/09 02:55:50;;;;;;;44.92;24.95;;;8.10;99.90;;;;;;5070441;28;20062;-90
2023/04/09 02:58:16;;;;;;;40.58;25.55;;;8.10;99.90;;;;;;5067053;28;20064;-90
2023/04/09 03:00:42;;;;;;;39.97;24.25;;;8.10;99.90;;;;;;5087075;28;20088;-90
2023/04/09 03:03:07;;;;;;;40.97;23.63;;;8.10;99.90;;;;;;5083539;28;20121;-90
2023/04/09 03:05:35;;;;;;;38.72;23.98;;;8.10;99.90;;;;;;5064979;28;20040;-90
2023/04/09 03:08:00;;;;;;;39.17;22.90;;;8.10;99.90;;;;;;5084502;28;20043;-89
2023/04/09 03:10:26;;;;;;;40.15;24.60;;;8.00;99.90;;;;;;5081213;28;20055;-90
2023/04/09 03:12:52;;;;;;;41.00;24.63;;;8.00;99.90;;;;;;5069713;28;20494;-90
2023/04/09 03:15:17;;;;;;;39.55;23.45;;;8.10;99.90;;;;;;5068698;28;20131;-90
2023/04/09 03:17:43;;;;;;;43.42;24.98;;;8.00;99.90;;;;;;5098491;27;20064;-90
2023/04/09 03:20:09;;;;;;;39.50;23.88;;;8.10;99.90;;;;;;5085730;28;20556;-90
2023/04/09 03:22:38;;;;;;;43.65;24.65;;;8.10;99.90;;;;;;5094838;27;20620;-89
2023/04/09 03:25:05;;;;;;;44.58;26.63;;;8.00;99.90;;;;;;5101083;27;20043;-90
2023/04/09 03:27:32;;;;;;;44.08;26.33;;;8.00;99.90;;;;;;5070784;28;20032;-90
2023/04/09 03:29:57;;;;;;;44.28;25.42;;;8.00;99.90;;;;;;5068172;28;20036;-90
2023/04/09 03:32:23;;;;;;;45.03;26.25;;;8.00;99.90;;;;;;5085619;28;20036;-91
2023/04/09 03:34:49;;;;;;;43.50;26.40;;;8.00;99.90;;;;;;5068360;28;20032;-90
2023/04/09 03:37:14;;;;;;;41.25;24.27;;;8.00;99.90;;;;;;5088560;28;20836;-91
2023/04/09 03:39:40;;;;;;;44.67;25.08;;;8.00;99.90;;;;;;5098708;27;20115;-89
2023/04/09 03:42:06;;;;;;;44.72;26.02;;;7.90;99.90;;;;;;5065783;28;20036;-90
2023/04/09 03:44:32;;;;;;;45.53;25.98;;;7.90;99.90;;;;;;5066295;28;20032;-90
2023/04/09 03:46:58;;;;;;;43.45;25.77;;;8.00;99.90;;;;;;5080742;28;20068;-90
2023/04/09 03:49:23;;;;;;;40.58;24.85;;;8.00;99.90;;;;;;5067121;28;20051;-90
2023/04/09 03:51:49;;;;;;;47.15;25.23;;;8.00;99.90;;;;;;5103852;27;20494;-90
2023/04/09 03:54:15;;;;;;;40.78;24.33;;;8.00;99.90;;;;;;5081895;28;20039;-90
2023/04/09 03:56:40;;;;;;;44.55;25.15;;;8.00;99.90;;;;;;5099985;27;20036;-90
2023/04/09 03:59:06;;;;;;;45.50;25.50;;;8.00;99.90;;;;;;5064309;28;20164;-90
2023/04/09 04:01:33;;;;;;;46.90;26.77;;;8.00;99.90;;;;;;5070237;28;20482;-89
2023/04/09 04:03:59;;;;;;;41.70;25.45;;;8.00;99.90;;;;;;5081356;28;20415;-90
2023/04/09 04:06:26;;;;;;;40.80;25.23;;;8.00;99.90;;;;;;5082125;28;20036;-90
2023/04/09 04:08:52;;;;;;;44.83;26.38;;;8.00;99.90;;;;;;5087460;28;20054;-90
2023/04/09 04:11:17;;;;;;;43.22;25.27;;;8.10;99.90;;;;;;5071728;28;20119;-90
2023/04/09 04:13:43;;;;;;;44.60;25.05;;;8.00;99.90;;;;;;5081876;28;20048;-90
2023/04/09 04:16:09;;;;;;;47.90;26.00;;;8.00;99.90;;;;;;5082147;28;20044;-91
2023/04/09 04:18:35;;;;;;;44.17;25.70;;;8.00;99.90;;;;;;5099116;27;20067;-90
2023/04/09 04:21:02;;;;;;;46.17;25.90;;;8.00;99.90;;;;;;5086598;28;20027;-90
2023/04/09 04:23:27;;;;;;;42.58;25.13;;;7.90;99.90;;;;;;5079638;28;20032;-90
2023/04/09 04:25:53;;;;;;;42.92;25.25;;;7.90;99.90;;;;;;5067952;28;20099;-91
2023/04/09 04:28:19;;;;;;;47.53;26.70;;;7.90;99.90;;;;;;5083761;28;20044;-90
2023/04/09 04:30:44;;;;;;;45.05;25.25;;;7.90;99.90;;;;;;5084145;28;20129;-90
2023/04/09 04:33:10;;;;;;;44.67;26.38;;;7.90;99.90;;;;;;5065968;28;20042;-90
2023/04/09 04:35:36;;;;;;;45.03;26.88;;;8.00;99.90;;;;;;5067099;28;20044;-90
2023/04/09 04:38:02;;;;;;;43.78;25.85;;;7.90;99.90;;;;;;5067482;28;20112;-90
2023/04/09 04:40:27;;;;;;;43.95;25.90;;;7.90;99.90;;;;;;5066326;28;20093;-90
2023/04/09 04:42:54;;;;;;;43.30;25.15;;;7.90;99.90;;;;;;5082126;28;20051;-90
2023/04/09 04:45:19;;;;;;;43.45;26.42;;;8.00;99.90;;;;;;5080724;28;20069;-90
2023/04/09 04:47:45;;;;;;;46.30;26.33;;;8.00;99.90;;;;;;5080362;28;20097;-90
2023/04/09 04:50:11;;;;;;;43.88;26.48;;;8.00;99.90;;;;;;5067167;28;20032;-90
2023/04/09 04:52:39;;;;;;;42.47;25.83;;;8.00;99.90;;;;;;5068018;28;20079;-90
2023/04/09 04:55:05;;;;;;;46.08;26.83;;;8.00;99.90;;;;;;5082274;28;20490;-90
2023/04/09 04:57:31;;;;;;;42.10;26.25;;;8.00;99.90;;;;;;5069675;28;20035;-90
2023/04/09 04:59:56;;;;;;;46.22;27.77;;;8.00;99.90;;;;;;5099831;28;20391;-91
2023/04/09 05:02:25;;;;;;;45.25;26.52;;;8.00;99.90;;;;;;5080513;28;20450;-91
2023/04/09 05:04:50;;;;;;;44.60;25.90;;;8.00;99.90;;;;;;5100176;28;20048;-90
2023/04/09 05:07:16;;;;;;;48.17;28.05;;;8.00;99.90;;;;;;5069523;28;20519;-90
2023/04/09 05:09:43;;;;;;;43.47;26.60;;;8.10;99.90;;;;;;5069711;28;20592;-91
2023/04/09 05:12:09;;;;;;;46.85;27.23;;;8.00;99.90;;;;;;5067447;28;20043;-90
2023/04/09 05:14:35;;;;;;;45.63;26.65;;;8.10;99.90;;;;;;5082209;28;20044;-90
2023/04/09 05:17:00;;;;;;;48.55;27.20;;;8.00;99.90;;;;;;5083541;28;20511;-90
2023/04/09 05:19:26;;;;;;;48.25;27.55;;;8.10;99.90;;;;;;5071327;28;20116;-90
2023/04/09 05:21:51;;;;;;;52.67;28.45;;;8.10;99.90;;;;;;5101477;27;20509;-90
2023/04/09 05:24:17;;;;;;;52.58;28.52;;;8.10;99.90;;;;;;5087679;28;20035;-90
2023/04/09 05:26:43;;;;;;;42.83;26.45;;;8.20;99.90;;;;;;5071262;28;20036;-90
2023/04/09 05:29:08;;;;;;;45.45;27.02;;;8.20;99.90;;;;;;5102297;27;20089;-90
2023/04/09 05:31:34;;;;;;;45.17;27.63;;;8.20;99.90;;;;;;5087135;28;20394;-90
2023/04/09 05:34:00;;;;;;;47.92;27.33;;;8.20;99.90;;;;;;5069032;28;20047;-90
2023/04/09 05:36:26;;;;;;;43.05;24.58;;;8.10;99.90;;;;;;5087228;28;20534;-90
2023/04/09 05:38:51;;;;;;;40.13;24.45;;;8.20;99.90;;;;;;5090707;28;20051;-90
2023/04/09 05:41:17;;;;;;;38.65;23.85;;;8.20;99.90;;;;;;5074237;28;20032;-91
2023/04/09 05:43:45;;;;;;;34.85;21.95;;;8.20;99.90;;;;;;5086483;28;20514;-91
2023/04/09 05:46:11;;;;;;;32.47;21.88;;;8.20;99.90;;;;;;5100361;27;20040;-90
2023/04/09 05:48:36;;;;;;;33.85;22.10;;;8.30;99.90;;;;;;5087647;28;20040;-89
2023/04/09 05:51:02;;;;;;;35.35;22.15;;;8.20;99.90;;;;;;5071785;28;20320;-90
2023/04/09 05:53:30;;;;;;;43.13;24.58;;;8.30;99.90;;;;;;5071690;28;20032;-90
2023/04/09 05:55:55;;;;;;;40.50;24.08;;;8.30;99.90;;;;;;5085921;28;20055;-91
2023/04/09 05:58:24;;;;;;;38.30;24.42;;;8.40;99.90;;;;;;5071836;28;20472;-90
2023/04/09 06:00:51;;;;;;;37.92;24.05;;;8.30;99.90;;;;;;5087264;28;20050;-90
2023/04/09 06:03:17;;;;;;;37.42;24.58;;;8.30;99.90;;;;;;5082329;28;20024;-90
2023/04/09 06:05:44;;;;;;;40.08;23.85;;;8.30;99.90;;;;;;5084795;28;20054;-90
2023/04/09 06:08:11;;;;;;;41.50;24.88;;;8.40;99.90;;;;;;5066627;28;20048;-90
2023/04/09 06:10:37;;;;;;;38.17;23.58;;;8.40;99.90;;;;;;5102281;27;20097;-90
2023/04/09 06:13:05;;;;;;;38.20;24.55;;;8.40;99.90;;;;;;5069273;28;20052;-90
2023/04/09 06:15:31;;;;;;;38.85;23.40;;;8.40;99.90;;;;;;5068371;28;20479;-91
2023/04/09 06:17:57;;;;;;;37.15;23.02;;;8.40;99.90;;;;;;5084315;28;20100;-90
2023/04/09 06:20:22;;;;;;;34.00;21.75;;;8.30;99.90;;;;;;5070165;28;20033;-90
2023/04/09 06:22:48;;;;;;;34.70;22.13;;;8.40;99.90;;;;;;5070998;28;20124;-90
2023/04/09 06:25:14;;;;;;;34.75;22.20;;;8.40;99.90;;;;;;5073354;28;20074;-90
2023/04/09 06:27:42;;;;;;;36.03;21.55;;;8.40;99.90;;;;;;5073840;28;20039;-89
2023/04/09 06:30:08;;;;;;;34.60;21.70;;;8.50;99.90;;;;;;5070114;28;20506;-90
2023/04/09 06:32:34;;;;;;;35.20;21.63;;;8.40;99.90;;;;;;5087133;28;20040;-91
2023/04/09 06:35:00;;;;;;;37.83;21.63;;;8.50;99.90;;;;;;5103114;27;20060;-90
2023/04/09 06:37:25;;;;;;;34.78;21.23;;;8.50;99.90;;;;;;5098276;27;20032;-89
2023/04/09 06:39:51;;;;;;;34.35;22.58;;;8.50;99.90;;;;;;5081952;28;20028;-89
2023/04/09 06:42:16;;;;;;;35.38;22.73;;;8.60;99.90;;;;;;5079860;28;20028;-88
2023/04/09 06:44:42;;;;;;;35.30;22.73;;;8.60;99.90;;;;;;5082062;28;20044;-90
2023/04/09 06:47:08;;;;;;;37.95;22.88;;;8.70;99.90;;;;;;5086392;28;20040;-89
2023/04/09 06:49:36;;;;;;;36.90;22.90;;;8.70;99.90;;;;;;5084313;28;20131;-90
2023/04/09 06:52:03;;;;;;;36.95;23.17;;;8.80;99.90;;;;;;5070132;28;20040;-89
2023/04/09 06:54:29;;;;;;;37.05;22.30;;;8.80;99.90;;;;;;5070622;28;20081;-89
2023/04/09 06:56:54;;;;;;;39.30;24.23;;;8.80;99.90;;;;;;5072731;28;20048;-90
2023/04/09 06:59:20;;;;;;;44.80;26.90;;;8.90;99.90;;;;;;5086656;28;20084;-89
2023/04/09 07:01:46;;;;;;;43.92;26.50;;;9.00;99.90;;;;;;5080597;28;20063;-89
2023/04/09 07:04:15;;;;;;;43.75;27.00;;;9.00;99.90;;;;;;5086493;28;20048;-89
2023/04/09 07:06:40;;;;;;;46.53;28.65;;;9.10;99.90;;;;;;5082099;28;20047;-89
2023/04/09 07:09:06;;;;;;;44.63;26.27;;;9.20;99.90;;;;;;5080711;28;20036;-90
2023/04/09 07:11:32;;;;;;;43.85;26.67;;;9.20;99.90;;;;;;5088426;28;20097;-89
2023/04/09 07:13:58;;;;;;;41.53;26.88;;;9.30;99.90;;;;;;5085841;28;20075;-90
2023/04/09 07:16:24;;;;;;;39.38;25.05;;;9.40;99.90;;;;;;5087326;28;20372;-90
2023/04/09 07:18:49;;;;;;;41.80;26.10;;;9.50;99.90;;;;;;5069724;28;20083;-90
2023/04/09 07:21:15;;;;;;;40.22;26.20;;;9.50;99.90;;;;;;5098967;27;20036;-89
2023/04/09 07:23:44;;;;;;;42.03;26.05;;;9.70;99.90;;;;;;5081001;28;20479;-89
2023/04/09 07:26:10;;;;;;;42.50;25.50;;;9.60;99.90;;;;;;5066423;28;20097;-89
2023/04/09 07:28:36;;;;;;;42.42;25.25;;;9.70;99.90;;;;;;5067237;28;20040;-90
2023/04/09 07:31:02;;;;;;;43.53;25.33;;;9.80;99.90;;;;;;5067806;28;20453;-89
2023/04/09 07:33:28;;;;;;;44.92;26.67;;;9.90;99.90;;;;;;5100125;27;20035;-89
2023/04/09 07:35:54;;;;;;;43.35;25.73;;;10.00;99.90;;;;;;5087167;28;20047;-90
2023/04/09 07:38:20;;;;;;;42.38;25.83;;;10.00;99.90;;;;;;5084987;28;20036;-90
2023/04/09 07:40:46;;;;;;;43.83;26.33;;;10.10;99.90;;;;;;5084416;28;20173;-90
2023/04/09 07:43:11;;;;;;;45.90;27.13;;;10.20;99.90;;;;;;5068321;28;20043;-90
2023/04/09 07:45:37;;;;;;;42.47;27.05;;;10.10;99.90;;;;;;5063393;28;20047;-90
2023/04/09 07:48:03;;;;;;;43.70;26.80;;;10.30;99.90;;;;;;5082629;28;20050;-89
2023/04/09 07:50:29;;;;;;;40.90;25.33;;;10.30;99.90;;;;;;5095061;28;20184;-90
2023/04/09 07:52:54;;;;;;;40.63;24.45;;;10.30;99.90;;;;;;5067940;28;20199;-91
2023/04/09 07:55:20;;;;;;;41.92;26.10;;;10.20;99.90;;;;;;5075411;28;20052;-90
2023/04/09 07:57:47;;;;;;;39.92;24.65;;;10.20;99.90;;;;;;5059020;28;20051;-90
2023/04/09 08:00:13;;;;;;;39.50;26.08;;;10.20;99.90;;;;;;5062995;28;20038;-90
2023/04/09 08:02:39;;;;;;;41.50;26.23;;;10.40;99.90;;;;;;5084540;28;20032;-90
2023/04/09 08:05:06;;;;;;;42.90;26.08;;;10.40;99.90;;;;;;5080631;28;20040;-89
2023/04/09 08:07:32;;;;;;;42.92;25.73;;;10.50;99.90;;;;;;5082456;28;20058;-90
2023/04/09 08:09:58;;;;;;;43.45;26.55;;;10.60;99.90;;;;;;5079523;28;20032;-91
2023/04/09 08:12:23;;;;;;;39.13;25.27;;;10.50;99.90;;;;;;5060412;28;20139;-90
2023/04/09 08:14:49;;;;;;;41.78;25.73;;;10.40;99.90;;;;;;5083003;28;20205;-90
2023/04/09 08:17:15;;;;;;;38.63;25.70;;;10.60;99.90;;;;;;5082284;28;20040;-90
2023/04/09 08:19:43;;;;;;;40.00;25.58;;;10.80;99.90;;;;;;5066537;28;20032;-90
2023/04/09 08:22:09;;;;;;;41.42;25.75;;;11.00;99.90;;;;;;5081609;28;20042;-89
2023/04/09 08:24:35;;;;;;;38.75;24.67;;;11.00;99.90;;;;;;5067815;28;20047;-91
2023/04/09 08:27:01;;;;;;;38.30;24.65;;;11.40;99.90;;;;;;5077063;28;20138;-89
2023/04/09 08:29:27;;;;;;;40.08;26.10;;;11.20;99.90;;;;;;5063489;28;20139;-90
2023/04/09 08:31:52;;;;;;;38.25;26.38;;;11.20;99.90;;;;;;5066089;28;20040;-90
2023/04/09 08:34:20;;;;;;;39.28;26.02;;;11.40;99.90;;;;;;5081936;28;20301;-89
2023/04/09 08:36:46;;;;;;;36.92;24.77;;;11.50;99.90;;;;;;5066161;28;20498;-90
2023/04/09 08:39:12;;;;;;;39.42;25.50;;;11.70;99.90;;;;;;5099071;27;20032;-90
2023/04/09 08:41:43;;;;;;;36.63;25.55;;;11.80;99.90;;;;;;5068179;28;20428;-89
2023/04/09 08:44:08;;;;;;;38.50;25.42;;;11.80;99.90;;;;;;5065687;28;20028;-90
2023/04/09 08:46:35;;;;;;;38.15;25.05;;;11.90;99.90;;;;;;5079971;28;20042;-90
2023/04/09 08:49:01;;;;;;;41.67;24.85;;;11.90;99.90;;;;;;5081626;28;20036;-90
2023/04/09 08:51:27;;;;;;;40.30;26.83;;;12.20;99.90;;;;;;5082800;28;20378;-89
2023/04/09 08:54:02;;;;;;;36.05;25.52;;;12.50;99.90;;;;;;5082385;28;20052;-90
2023/04/09 08:56:28;;;;;;;36.05;25.05;;;12.40;99.90;;;;;;5069863;28;20087;-90
2023/04/09 08:58:54;;;;;;;35.63;25.10;;;12.40;99.90;;;;;;5082607;28;20129;-90
2023/04/09 09:01:30;;;;;;;37.08;25.40;;;12.20;99.90;;;;;;5069871;28;20043;-90
2023/04/09 09:04:02;;;;;;;36.85;25.02;;;12.10;99.90;;;;;;5085581;28;20104;-90
2023/04/09 09:06:31;;;;;;;38.83;24.77;;;12.60;99.90;;;;;;5085208;28;20290;-90
2023/04/09 09:09:06;;;;;;;40.33;24.80;;;12.40;99.90;;;;;;5070229;28;20036;-90
2023/04/09 09:11:33;;;;;;;35.83;24.40;;;12.60;99.90;;;;;;5085451;28;20058;-91
2023/04/09 09:14:01;;;;;;;37.85;25.30;;;12.50;99.90;;;;;;5067158;28;20047;-90
2023/04/09 09:16:27;;;;;;;38.03;25.35;;;12.50;99.90;;;;;;5087419;28;20047;-90
2023/04/09 09:18:54;;;;;;;34.03;23.80;;;12.40;99.90;;;;;;5084989;28;20058;-90
2023/04/09 09:21:21;;;;;;;35.45;24.23;;;12.50;99.90;;;;;;5067324;28;20050;-90
2023/04/09 09:23:49;;;;;;;35.58;24.73;;;12.70;99.90;;;;;;5070511;28;20040;-90
2023/04/09 09:26:21;;;;;;;34.13;23.95;;;12.60;99.90;;;;;;5071182;28;20051;-91
2023/04/09 09:28:48;;;;;;;36.08;23.95;;;12.50;99.90;;;;;;5085163;28;20533;-90
2023/04/09 09:31:15;;;;;;;35.47;24.67;;;12.80;99.90;;;;;;5102017;27;20045;-90
2023/04/09 09:33:41;;;;;;;32.40;23.23;;;13.10;99.90;;;;;;5082889;28;20040;-90
2023/04/09 09:36:10;;;;;;;33.03;22.95;;;13.10;99.90;;;;;;5071337;28;20599;-90
2023/04/09 09:38:56;;;;;;;33.50;22.55;;;13.30;96.10;;;;;;5088554;28;20036;-90
2023/04/09 09:41:22;;;;;;;33.92;23.98;;;13.50;99.90;;;;;;5085510;28;20054;-90
2023/04/09 09:43:49;;;;;;;31.67;21.73;;;13.50;99.90;;;;;;5082472;28;20055;-90
2023/04/09 09:46:15;;;;;;;31.90;22.90;;;12.90;1.00;;;;;;5085627;28;20109;-90
2023/04/09 09:48:42;;;;;;;31.88;23.00;;;13.10;1.00;;;;;;5074280;28;20043;-90
2023/04/09 09:51:12;;;;;;;31.88;23.13;;;13.30;99.90;;;;;;5103950;27;20032;-90
2023/04/09 09:53:42;;;;;;;32.55;23.08;;;13.40;99.90;;;;;;5104827;27;20522;-90
2023/04/09 09:56:17;;;;;;;32.00;23.08;;;13.40;99.90;;;;;;5087197;28;20109;-90
2023/04/09 09:59:00;;;;;;;31.88;22.38;;;13.70;99.90;;;;;;5085993;28;20518;-90
2023/04/09 10:01:27;;;;;;;31.45;22.90;;;13.90;99.90;;;;;;5070333;28;20028;-90
2023/04/09 10:03:55;;;;;;;30.88;22.38;;;13.60;99.90;;;;;;5071008;28;20032;-90
2023/04/09 10:06:21;;;;;;;31.80;22.27;;;13.80;99.90;;;;;;5085473;28;20503;-90
2023/04/09 10:08:49;;;;;;;31.67;23.42;;;14.20;1.00;;;;;;5084211;28;20040;-89
2023/04/09 10:11:16;;;;;;;31.98;22.95;;;14.00;12.90;;;;;;5087329;28;20048;-89
2023/04/09 10:13:49;;;;;;;33.05;23.17;;;14.50;1.00;;;;;;5085806;28;20449;-89
2023/04/09 10:16:16;;;;;;;32.78;22.75;;;14.90;99.90;;;;;;5084967;28;20047;-90
2023/04/09 10:18:42;;;;;;;30.25;22.38;;;14.80;1.00;;;;;;5086437;28;20511;-90
2023/04/09 10:21:27;;;;;;;28.98;22.02;;;14.80;99.90;;;;;;5084834;28;20075;-90
2023/04/09 10:23:53;;;;;;;34.70;24.88;;;14.80;1.00;;;;;;5069593;28;20043;-89
2023/04/09 10:26:19;;;;;;;33.60;23.23;;;15.00;99.90;;;;;;5086084;28;20046;-89
2023/04/09 10:29:05;;;;;;;30.48;22.92;;;15.30;99.90;;;;;;5066249;28;20040;-90
2023/04/09 10:31:51;;;;;;;28.77;21.60;;;15.20;1.00;;;;;;5102718;27;20119;-90
2023/04/09 10:34:22;;;;;;;30.67;21.83;;;15.20;99.90;;;;;;5104024;27;20097;-89
2023/04/09 10:37:08;;;;;;;29.98;22.02;;;15.00;99.90;;;;;;5086752;28;20236;-90
2023/04/09 10:39:40;;;;;;;31.42;22.55;;;15.20;99.90;;;;;;5086085;28;20494;-90
2023/04/09 10:42:23;;;;;;;32.45;23.48;;;14.90;1.00;;;;;;5074954;28;20289;-88
2023/04/09 10:45:09;;;;;;;31.98;22.88;;;14.90;1.00;;;;;;5116635;27;20044;-89
2023/04/09 10:47:37;;;;;;;29.90;22.08;;;15.00;99.40;;;;;;5100908;27;20039;-89
2023/04/09 10:50:25;;;;;;;30.58;22.60;;;14.80;99.90;;;;;;5066040;28;20156;-89
2023/04/09 10:52:57;;;;;;;29.80;21.98;;;15.20;99.90;;;;;;5080470;28;20036;-90
2023/04/09 10:55:36;;;;;;;30.38;21.63;;;15.00;1.00;;;;;;5088215;28;20747;-90
2023/04/09 10:58:08;;;;;;;28.23;21.13;;;14.80;99.90;;;;;;5073712;28;20524;-90
2023/04/09 11:00:39;;;;;;;30.13;22.42;;;15.10;99.90;;;;;;5069809;28;20123;-90
2023/04/09 11:03:08;;;;;;;29.95;22.75;;;15.20;99.90;;;;;;5068413;28;20139;-89
2023/04/09 11:05:38;;;;;;;31.15;21.27;;;14.80;99.90;;;;;;5082270;28;20112;-90
2023/04/09 11:08:13;;;;;;;30.80;22.52;;;15.10;99.90;;;;;;5088167;28;20040;-89
2023/04/09 11:10:40;;;;;;;28.10;21.02;;;15.40;99.90;;;;;;5114473;27;20045;-90
2023/04/09 11:13:10;;;;;;;29.45;21.05;;;16.00;99.90;;;;;;5079083;28;20507;-83
2023/04/09 11:15:36;;;;;;;27.65;20.48;;;16.50;99.90;;;;;;5059362;28;20048;-84
2023/04/09 11:18:02;;;;;;;25.55;19.77;;;16.60;99.90;;;;;;5082799;28;20043;-84
2023/04/09 11:20:29;;;;;;;30.02;21.70;;;16.40;14.30;;;;;;5079128;28;20041;-85
2023/04/09 11:22:55;;;;;;;27.92;20.15;;;16.20;1.00;;;;;;5066265;28;20035;-84
2023/04/09 11:25:26;;;;;;;26.67;19.83;;;15.80;99.90;;;;;;5060038;28;20390;-84
2023/04/09 11:27:52;;;;;;;28.80;20.00;;;15.60;1.00;;;;;;5076454;28;20040;-84
2023/04/09 11:30:19;;;;;;;25.42;19.23;;;16.10;1.00;;;;;;5067288;28;20028;-84
2023/04/09 11:32:45;;;;;;;25.52;19.73;;;16.30;1.00;;;;;;5077962;28;20107;-84
2023/04/09 11:35:19;;;;;;;26.42;20.25;;;16.30;99.90;;;;;;5077235;28;20035;-84
2023/04/09 11:37:45;;;;;;;26.00;19.50;;;15.70;99.90;;;;;;5074606;28;20039;-84
2023/04/09 11:40:25;;;;;;;25.42;19.05;;;15.90;99.90;;;;;;5078455;28;20270;-84
2023/04/09 11:42:55;;;;;;;24.95;18.40;;;16.50;1.00;;;;;;5060223;28;20406;-85
2023/04/09 11:45:27;;;;;;;26.02;19.10;;;16.00;99.90;;;;;;5060569;28;20075;-84
2023/04/09 11:47:53;;;;;;;24.17;18.83;;;16.30;99.90;;;;;;5081334;28;20434;-84
2023/04/09 11:50:21;;;;;;;23.98;18.40;;;16.10;99.90;;;;;;5075605;28;20112;-84
2023/04/09 11:52:48;;;;;;;24.75;18.48;;;15.70;1.00;;;;;;5075340;28;20064;-84
2023/04/09 11:55:32;;;;;;;22.30;17.50;;;16.10;21.60;;;;;;5079058;28;20554;-83
2023/04/09 11:57:59;;;;;;;24.92;18.48;;;16.40;1.00;;;;;;5075893;28;20406;-84
2023/04/09 12:00:26;;;;;;;24.92;19.27;;;16.20;1.00;;;;;;5077939;28;20399;-84
2023/04/09 12:03:03;;;;;;;22.73;18.23;;;17.00;99.90;;;;;;5080069;28;20036;-84
2023/04/09 12:05:31;;;;;;;23.98;17.60;;;17.20;86.10;;;;;;5060368;28;20054;-84
2023/04/09 12:08:03;;;;;;;24.63;17.88;;;16.60;1.00;;;;;;5066622;28;20506;-84
2023/04/09 12:10:31;;;;;;;25.15;18.00;;;16.80;99.90;;;;;;5076365;28;20044;-84
2023/04/09 12:13:06;;;;;;;23.25;17.75;;;16.50;85.10;;;;;;5075956;28;20036;-84
2023/04/09 12:15:34;;;;;;;22.50;17.55;;;16.80;32.60;;;;;;5075384;28;20044;-84
2023/04/09 12:18:00;;;;;;;23.58;17.63;;;16.70;1.00;;;;;;5063968;28;20224;-84
2023/04/09 12:20:27;;;;;;;23.33;18.23;;;16.80;14.80;;;;;;5073087;28;20078;-84
2023/04/09 12:22:58;;;;;;;22.85;17.70;;;16.70;74.90;;;;;;5078365;28;20050;-84
2023/04/09 12:25:24;;;;;;;23.13;18.60;;;16.70;1.00;;;;;;5063335;28;20028;-84
2023/04/09 12:27:50;;;;;;;24.40;17.88;;;16.30;99.90;;;;;;5063028;28;20630;-87
2023/04/09 12:30:16;;;;;;;21.15;17.15;;;16.20;99.90;;;;;;5064000;28;20515;-86
2023/04/09 12:32:43;;;;;;;22.48;17.95;;;16.50;1.00;;;;;;5080540;28;20043;-85
2023/04/09 12:35:09;;;;;;;22.73;18.00;;;16.90;1.00;;;;;;5075942;28;20059;-85
2023/04/09 12:37:36;;;;;;;21.85;16.92;;;17.00;99.90;;;;;;5074522;28;20093;-85